Time;durP1;ratioP1;P1;durP2;ratioP2;P2;SDS_P1;SDS_P2;PMS_P1;PMS_P2;Temp;Humidity;BMP_temperature;BMP_pressure;BME280_temperature;BME280_humidity;BME280_pressure;Samples;Min_cycle;Max_cycle;Signal;HPM_P1;HPM_P2
2023/10/23 00:01:48;;;;;;;12.95;10.05;;;;;;;;;;6153811;23;20086;-74
2023/10/23 00:04:14;;;;;;;9.05;8.13;;;;;;;;;;6127495;23;20013;-73
2023/10/23 00:06:40;;;;;;;12.80;9.38;;;;;;;;;;6153435;23;20020;-73
2023/10/23 00:09:06;;;;;;;16.20;10.95;;;;;;;;;;6153765;23;20496;-75
2023/10/23 00:11:32;;;;;;;14.73;9.95;;;;;;;;;;6127402;23;20017;-75
2023/10/23 00:13:58;;;;;;;14.95;10.60;;;;;;;;;;6152906;23;20009;-74
2023/10/23 00:16:25;;;;;;;12.35;10.13;;;;;;;;;;6153381;23;20018;-75
2023/10/23 00:18:53;;;;;;;10.07;9.07;;;;;;;;;;6153161;23;20065;-75
2023/10/23 00:21:19;;;;;;;7.55;6.95;;;;;;;;;;6151467;23;20458;-74
2023/10/23 00:23:45;;;;;;;12.80;8.57;;;;;;;;;;6154107;23;20020;-75
2023/10/23 00:26:11;;;;;;;8.52;7.70;;;;;;;;;;6155095;23;20339;-73
2023/10/23 00:28:41;;;;;;;14.15;9.50;;;;;;;;;;6152727;23;20403;-73
2023/10/23 00:31:07;;;;;;;12.27;8.40;;;;;;;;;;6152006;23;20014;-74
2023/10/23 00:33:33;;;;;;;11.93;8.15;;;;;;;;;;6152868;23;20045;-74
2023/10/23 00:35:59;;;;;;;13.52;9.68;;;;;;;;;;6153287;23;20425;-75
2023/10/23 00:38:28;;;;;;;22.15;14.00;;;;;;;;;;6127120;23;20112;-75
2023/10/23 00:40:54;;;;;;;26.90;16.38;;;;;;;;;;6153282;23;20012;-73
2023/10/23 00:43:21;;;;;;;35.97;19.30;;;;;;;;;;6151416;23;20115;-74
2023/10/23 00:45:58;;;;;;;25.48;15.18;;;;;;;;;;6153364;23;20072;-75
2023/10/23 00:48:24;;;;;;;25.55;14.25;;;;;;;;;;6153056;23;20072;-74
2023/10/23 00:50:50;;;;;;;21.73;12.95;;;;;;;;;;6153430;23;20080;-74
2023/10/23 00:53:20;;;;;;;28.33;16.13;;;;;;;;;;6153058;23;20035;-74
2023/10/23 00:55:46;;;;;;;22.50;12.73;;;;;;;;;;6126897;23;20028;-74
2023/10/23 00:58:12;;;;;;;21.85;12.93;;;;;;;;;;6153344;23;20025;-72
2023/10/23 01:00:38;;;;;;;21.77;11.57;;;;;;;;;;6153222;23;20028;-75
2023/10/23 01:03:04;;;;;;;17.30;11.70;;;;;;;;;;6153133;23;20013;-75
2023/10/23 01:05:30;;;;;;;25.20;15.23;;;;;;;;;;6151640;23;20028;-76
2023/10/23 01:07:56;;;;;;;29.60;14.27;;;;;;;;;;6153124;23;20016;-75
2023/10/23 01:10:22;;;;;;;17.08;10.48;;;;;;;;;;6152949;23;20331;-75
2023/10/23 01:12:48;;;;;;;23.63;13.60;;;;;;;;;;6153254;23;20078;-75
2023/10/23 01:15:14;;;;;;;16.60;11.25;;;;;;;;;;6153091;23;20371;-75
2023/10/23 01:17:40;;;;;;;20.25;12.00;;;;;;;;;;6152827;23;20185;-74
2023/10/23 01:20:09;;;;;;;13.82;11.18;;;;;;;;;;6151252;23;20232;-75
2023/10/23 01:22:36;;;;;;;11.88;8.63;;;;;;;;;;6153488;23;20041;-74
2023/10/23 01:25:02;;;;;;;14.23;10.80;;;;;;;;;;6152649;23;20020;-76
2023/10/23 01:27:29;;;;;;;14.65;9.73;;;;;;;;;;6171791;23;19997;-76
2023/10/23 01:29:55;;;;;;;13.40;10.50;;;;;;;;;;6167692;23;20086;-74
2023/10/23 01:32:21;;;;;;;17.35;9.65;;;;;;;;;;6153561;23;20059;-75
2023/10/23 01:34:47;;;;;;;12.15;10.40;;;;;;;;;;6154623;23;20113;-77
2023/10/23 01:37:13;;;;;;;13.38;9.35;;;;;;;;;;6152674;23;20029;-77
2023/10/23 01:39:39;;;;;;;17.45;7.35;;;;;;;;;;6153850;23;20025;-77
2023/10/23 01:42:05;;;;;;;7.10;6.40;;;;;;;;;;6154596;23;20040;-76
2023/10/23 01:44:32;;;;;;;10.63;7.32;;;;;;;;;;6153501;23;20016;-77
2023/10/23 01:46:57;;;;;;;12.77;8.40;;;;;;;;;;6154171;23;20013;-77
2023/10/23 01:49:23;;;;;;;10.65;8.20;;;;;;;;;;6152216;23;20361;-79
2023/10/23 01:51:49;;;;;;;5.55;4.97;;;;;;;;;;6152461;23;20441;-78
2023/10/23 01:54:15;;;;;;;7.68;6.03;;;;;;;;;;6152292;23;20019;-77
2023/10/23 01:56:41;;;;;;;7.70;6.80;;;;;;;;;;6150123;23;20099;-78
2023/10/23 01:59:07;;;;;;;7.97;7.18;;;;;;;;;;6126507;23;20010;-76
2023/10/23 02:01:38;;;;;;;8.52;7.53;;;;;;;;;;6150641;23;20021;-75
2023/10/23 02:04:04;;;;;;;7.53;6.63;;;;;;;;;;6150908;23;20040;-74
2023/10/23 02:06:30;;;;;;;12.93;9.02;;;;;;;;;;6152207;23;20406;-75
2023/10/23 02:08:56;;;;;;;7.32;6.55;;;;;;;;;;6152667;23;20033;-74
2023/10/23 02:11:22;;;;;;;9.02;8.10;;;;;;;;;;6152431;23;20018;-75
2023/10/23 02:13:48;;;;;;;7.55;6.60;;;;;;;;;;6150707;23;20092;-74
2023/10/23 02:16:14;;;;;;;9.23;7.53;;;;;;;;;;6152244;23;20458;-73
2023/10/23 02:18:41;;;;;;;9.93;8.18;;;;;;;;;;6150116;23;20064;-75
2023/10/23 02:21:07;;;;;;;8.90;8.00;;;;;;;;;;6150755;23;20041;-75
2023/10/23 02:23:33;;;;;;;10.00;7.50;;;;;;;;;;6150311;23;20018;-75
2023/10/23 02:25:59;;;;;;;10.85;7.75;;;;;;;;;;6152315;23;20092;-74
2023/10/23 02:28:26;;;;;;;7.97;7.18;;;;;;;;;;6150459;23;20059;-74
2023/10/23 02:30:52;;;;;;;6.55;5.85;;;;;;;;;;6152265;23;20013;-73
2023/10/23 02:33:17;;;;;;;7.47;6.60;;;;;;;;;;6152245;23;20079;-74
2023/10/23 02:35:45;;;;;;;4.60;4.18;;;;;;;;;;6151604;23;20390;-74
2023/10/23 02:38:11;;;;;;;4.28;3.92;;;;;;;;;;6152260;23;20021;-74
2023/10/23 02:40:37;;;;;;;7.70;6.40;;;;;;;;;;6151772;23;20021;-74
2023/10/23 02:43:03;;;;;;;5.40;4.90;;;;;;;;;;6150580;23;20092;-74
2023/10/23 02:45:33;;;;;;;3.10;2.90;;;;;;;;;;6175069;23;20037;-75
2023/10/23 02:48:00;;;;;;;7.03;6.33;;;;;;;;;;6152326;23;20038;-75
2023/10/23 02:50:26;;;;;;;3.70;3.45;;;;;;;;;;6152096;23;20317;-75
2023/10/23 02:52:52;;;;;;;16.75;6.28;;;;;;;;;;6150538;23;20093;-74
2023/10/23 02:55:18;;;;;;;3.50;3.20;;;;;;;;;;6151710;23;20068;-75
2023/10/23 02:57:45;;;;;;;4.40;4.07;;;;;;;;;;6126004;23;20374;-73
2023/10/23 03:00:11;;;;;;;5.18;4.68;;;;;;;;;;6150265;23;20013;-75
2023/10/23 03:02:39;;;;;;;4.82;4.35;;;;;;;;;;6174958;23;20386;-75
2023/10/23 03:05:07;;;;;;;6.60;6.00;;;;;;;;;;6152032;23;20010;-75
2023/10/23 03:07:32;;;;;;;6.35;5.75;;;;;;;;;;6152084;23;20017;-76
2023/10/23 03:09:58;;;;;;;10.98;6.03;;;;;;;;;;6151921;23;20010;-75
2023/10/23 03:12:24;;;;;;;5.60;5.07;;;;;;;;;;6150273;23;20100;-75
2023/10/23 03:14:50;;;;;;;6.43;4.43;;;;;;;;;;6151680;23;20060;-75
2023/10/23 03:17:16;;;;;;;8.40;6.70;;;;;;;;;;6151853;23;20071;-75
2023/10/23 03:19:43;;;;;;;7.28;4.82;;;;;;;;;;6150018;23;20093;-74
2023/10/23 03:22:09;;;;;;;5.95;5.10;;;;;;;;;;6150191;23;20018;-75
2023/10/23 03:24:35;;;;;;;3.60;3.25;;;;;;;;;;6151573;23;20358;-73
2023/10/23 03:27:01;;;;;;;8.38;6.75;;;;;;;;;;6103035;23;20473;-74
2023/10/23 03:29:28;;;;;;;7.35;6.65;;;;;;;;;;6158767;23;20018;-75
2023/10/23 03:31:54;;;;;;;6.47;5.88;;;;;;;;;;6127700;23;20519;-76
2023/10/23 03:34:23;;;;;;;11.55;6.38;;;;;;;;;;6163891;23;20028;-75
2023/10/23 03:36:49;;;;;;;5.50;5.00;;;;;;;;;;6164211;23;20016;-76
2023/10/23 03:39:15;;;;;;;4.82;4.15;;;;;;;;;;6163373;23;20017;-75
2023/10/23 03:41:42;;;;;;;11.45;7.03;;;;;;;;;;6152107;23;20092;-75
2023/10/23 03:44:08;;;;;;;3.95;3.67;;;;;;;;;;6150945;23;20415;-76
2023/10/23 03:46:34;;;;;;;6.03;5.35;;;;;;;;;;6150218;23;20006;-76
2023/10/23 03:49:00;;;;;;;16.88;13.02;;;;;;;;;;6153824;23;20362;-76
2023/10/23 03:51:26;;;;;;;11.55;8.82;;;;;;;;;;6127996;23;20100;-76
2023/10/23 03:53:52;;;;;;;17.00;8.50;;;;;;;;;;6153317;23;20010;-75
2023/10/23 03:56:19;;;;;;;11.10;8.00;;;;;;;;;;6152950;23;20032;-74
2023/10/23 03:58:45;;;;;;;9.13;6.45;;;;;;;;;;6152619;23;20025;-75
2023/10/23 04:01:12;;;;;;;11.00;7.30;;;;;;;;;;6152076;23;20013;-75
2023/10/23 04:03:38;;;;;;;7.28;5.35;;;;;;;;;;6152179;23;20112;-76
2023/10/23 04:06:04;;;;;;;9.00;6.68;;;;;;;;;;6154859;23;20351;-76
2023/10/23 04:08:30;;;;;;;7.32;6.38;;;;;;;;;;6154881;23;20017;-76
2023/10/23 04:10:58;;;;;;;10.65;7.72;;;;;;;;;;6153386;23;20061;-76
2023/10/23 04:13:25;;;;;;;16.58;6.85;;;;;;;;;;6157790;23;20018;-76
2023/10/23 04:15:52;;;;;;;7.45;5.93;;;;;;;;;;6173314;23;20009;-75
2023/10/23 04:18:18;;;;;;;6.72;5.40;;;;;;;;;;6156388;23;20032;-76
2023/10/23 04:20:44;;;;;;;5.47;3.92;;;;;;;;;;6153596;23;20036;-78
2023/10/23 04:23:10;;;;;;;29.88;5.68;;;;;;;;;;6153640;23;20470;-77
2023/10/23 04:25:36;;;;;;;5.35;3.38;;;;;;;;;;6152981;23;20013;-76
2023/10/23 04:28:03;;;;;;;17.10;7.30;;;;;;;;;;6152861;23;20017;-77
2023/10/23 04:30:29;;;;;;;9.65;6.78;;;;;;;;;;6152541;23;20009;-75
2023/10/23 04:32:55;;;;;;;14.90;7.28;;;;;;;;;;6153020;23;20472;-77
2023/10/23 04:35:21;;;;;;;7.75;4.80;;;;;;;;;;6151856;23;20037;-77
2023/10/23 04:37:48;;;;;;;15.63;8.05;;;;;;;;;;6152678;23;20100;-77
2023/10/23 04:40:14;;;;;;;16.95;5.40;;;;;;;;;;6153412;23;20112;-77
2023/10/23 04:42:40;;;;;;;14.30;5.47;;;;;;;;;;6152616;23;20044;-74
2023/10/23 04:45:06;;;;;;;18.33;8.15;;;;;;;;;;6151341;23;20458;-75
2023/10/23 04:47:33;;;;;;;34.65;9.27;;;;;;;;;;6152282;23;20027;-78
2023/10/23 04:49:59;;;;;;;10.65;5.88;;;;;;;;;;6153278;23;20030;-79
2023/10/23 04:52:25;;;;;;;35.13;8.23;;;;;;;;;;6156667;23;20362;-78
2023/10/23 04:54:51;;;;;;;39.35;10.77;;;;;;;;;;6156728;23;20025;-80
2023/10/23 04:57:17;;;;;;;104.65;10.77;;;;;;;;;;6158846;23;20044;-78
2023/10/23 04:59:43;;;;;;;19.98;6.88;;;;;;;;;;6155345;23;20017;-79
2023/10/23 05:02:09;;;;;;;27.63;6.00;;;;;;;;;;6160013;23;20096;-81
2023/10/23 05:04:35;;;;;;;13.65;5.95;;;;;;;;;;6155940;23;20073;-76
2023/10/23 05:07:01;;;;;;;25.10;7.03;;;;;;;;;;6157076;23;20458;-78
2023/10/23 05:09:27;;;;;;;10.50;4.30;;;;;;;;;;6156838;23;20011;-78
2023/10/23 05:11:53;;;;;;;28.90;5.70;;;;;;;;;;6131861;23;20018;-76
2023/10/23 05:14:19;;;;;;;38.60;7.93;;;;;;;;;;6152432;23;20010;-77
2023/10/23 05:16:45;;;;;;;84.55;9.38;;;;;;;;;;6150167;23;20409;-75
2023/10/23 05:19:11;;;;;;;32.55;9.20;;;;;;;;;;6152023;23;20017;-77
2023/10/23 05:21:37;;;;;;;50.78;7.60;;;;;;;;;;6152602;23;20021;-78
2023/10/23 05:24:03;;;;;;;16.40;7.20;;;;;;;;;;6152046;23;20013;-78
2023/10/23 05:26:29;;;;;;;14.48;5.25;;;;;;;;;;6150687;23;20017;-78
2023/10/23 05:28:55;;;;;;;29.52;7.45;;;;;;;;;;6151827;23;20531;-78
2023/10/23 05:31:21;;;;;;;240.23;16.13;;;;;;;;;;6152378;23;20017;-79
2023/10/23 05:33:49;;;;;;;30.58;7.75;;;;;;;;;;6149990;23;20481;-78
2023/10/23 05:36:15;;;;;;;28.83;11.10;;;;;;;;;;6150319;23;20017;-77
2023/10/23 05:38:41;;;;;;;99.13;11.63;;;;;;;;;;6151530;23;20025;-77
2023/10/23 05:41:08;;;;;;;9.52;5.55;;;;;;;;;;6149197;23;20469;-78
2023/10/23 05:43:34;;;;;;;19.75;7.82;;;;;;;;;;6152558;23;20020;-74
2023/10/23 05:46:03;;;;;;;20.73;9.13;;;;;;;;;;6150189;23;20417;-78
2023/10/23 05:48:30;;;;;;;31.10;11.73;;;;;;;;;;6154890;23;20020;-80
2023/10/23 05:50:57;;;;;;;30.80;10.07;;;;;;;;;;6161496;23;20009;-79
2023/10/23 05:53:23;;;;;;;29.08;10.20;;;;;;;;;;6157791;23;20018;-80
2023/10/23 05:55:49;;;;;;;21.83;8.02;;;;;;;;;;6109654;23;20025;-81
2023/10/23 05:58:15;;;;;;;20.30;8.40;;;;;;;;;;6159106;23;20108;-78
2023/10/23 06:00:41;;;;;;;24.67;9.20;;;;;;;;;;6159289;23;20014;-82
2023/10/23 06:03:07;;;;;;;27.77;10.43;;;;;;;;;;6158138;23;20041;-81
2023/10/23 06:05:38;;;;;;;53.65;11.20;;;;;;;;;;6156331;23;20013;-80
2023/10/23 06:08:04;;;;;;;26.38;8.90;;;;;;;;;;6156583;23;20014;-81
2023/10/23 06:10:30;;;;;;;26.80;9.13;;;;;;;;;;6158168;23;20332;-81
2023/10/23 06:12:56;;;;;;;39.47;10.40;;;;;;;;;;6155420;23;20342;-79
2023/10/23 06:15:22;;;;;;;27.05;8.77;;;;;;;;;;6154949;23;20100;-81
2023/10/23 06:17:49;;;;;;;66.40;10.82;;;;;;;;;;6156357;23;20104;-81
2023/10/23 06:20:15;;;;;;;19.98;8.75;;;;;;;;;;6154213;23;20013;-83
2023/10/23 06:22:41;;;;;;;20.65;7.78;;;;;;;;;;6157597;23;20100;-79
2023/10/23 06:25:07;;;;;;;32.78;8.70;;;;;;;;;;6150210;23;20044;-77
2023/10/23 06:27:33;;;;;;;19.85;8.85;;;;;;;;;;6149714;23;20346;-77
2023/10/23 06:29:59;;;;;;;19.15;8.38;;;;;;;;;;6149757;23;20019;-76
2023/10/23 06:32:25;;;;;;;16.65;7.63;;;;;;;;;;6148950;23;20436;-78
2023/10/23 06:34:53;;;;;;;26.33;9.77;;;;;;;;;;6150456;23;20092;-78
2023/10/23 06:37:20;;;;;;;20.52;9.52;;;;;;;;;;6159181;23;20528;-82
2023/10/23 06:39:46;;;;;;;20.00;9.25;;;;;;;;;;6158140;23;20013;-81
2023/10/23 06:42:12;;;;;;;20.65;8.70;;;;;;;;;;6158992;23;20014;-82
2023/10/23 06:44:38;;;;;;;20.00;9.30;;;;;;;;;;6152553;23;20013;-79
2023/10/23 06:47:04;;;;;;;20.38;9.10;;;;;;;;;;6154041;23;20014;-78
2023/10/23 06:49:30;;;;;;;25.27;9.50;;;;;;;;;;6154882;23;20069;-80
2023/10/23 06:51:56;;;;;;;25.60;10.30;;;;;;;;;;6154303;23;20021;-80
2023/10/23 06:54:23;;;;;;;33.10;12.60;;;;;;;;;;6151593;23;20105;-80
2023/10/23 06:56:50;;;;;;;36.92;12.73;;;;;;;;;;6150651;23;20033;-80
2023/10/23 06:59:16;;;;;;;42.03;12.82;;;;;;;;;;6153923;23;20014;-77
2023/10/23 07:01:41;;;;;;;45.63;13.55;;;;;;;;;;6135122;23;20037;-81
2023/10/23 07:04:08;;;;;;;38.80;11.63;;;;;;;;;;6177997;23;20008;-81
2023/10/23 07:06:34;;;;;;;39.67;12.13;;;;;;;;;;6174519;23;20021;-81
2023/10/23 07:09:00;;;;;;;39.95;12.10;;;;;;;;;;6165036;23;20045;-80
2023/10/23 07:11:26;;;;;;;58.05;12.73;;;;;;;;;;6164741;23;20006;-80
2023/10/23 07:13:52;;;;;;;45.13;12.70;;;;;;;;;;6128773;23;20014;-81
2023/10/23 07:16:18;;;;;;;70.35;13.35;;;;;;;;;;6151915;23;20093;-81
2023/10/23 07:18:45;;;;;;;36.05;12.20;;;;;;;;;;6127881;23;20021;-80
2023/10/23 07:21:11;;;;;;;51.55;12.27;;;;;;;;;;6152539;23;20016;-78
2023/10/23 07:23:37;;;;;;;30.55;11.90;;;;;;;;;;6152524;23;20041;-77
2023/10/23 07:26:12;;;;;;;25.45;12.02;;;;;;;;;;6154223;23;20354;-79
2023/10/23 07:28:39;;;;;;;38.00;12.68;;;;;;;;;;6154610;23;20018;-79
2023/10/23 07:31:05;;;;;;;32.17;11.57;;;;;;;;;;6159544;23;20450;-79
2023/10/23 07:33:31;;;;;;;23.65;10.80;;;;;;;;;;6159537;23;20510;-79
2023/10/23 07:36:01;;;;;;;25.52;10.50;;;;;;;;;;6156620;23;20014;-80
2023/10/23 07:38:27;;;;;;;25.23;10.57;;;;;;;;;;6165595;23;20001;-84
2023/10/23 07:40:52;;;;;;;22.15;10.80;;;;;;;;;;6140838;23;20009;-81
2023/10/23 07:43:18;;;;;;;21.00;10.23;;;;;;;;;;6157925;23;20051;-79
2023/10/23 07:45:44;;;;;;;23.95;11.40;;;;;;;;;;6170309;23;20010;-81
2023/10/23 07:48:10;;;;;;;21.05;10.65;;;;;;;;;;6174185;23;20020;-79
2023/10/23 07:50:37;;;;;;;15.63;10.00;;;;;;;;;;6168657;23;20009;-77
2023/10/23 07:53:03;;;;;;;21.73;11.13;;;;;;;;;;6163359;23;20020;-81
2023/10/23 07:55:29;;;;;;;20.92;10.93;;;;;;;;;;6159266;23;20017;-81
2023/10/23 07:57:55;;;;;;;25.33;11.38;;;;;;;;;;6154285;23;20120;-77
2023/10/23 08:00:22;;;;;;;21.23;10.95;;;;;;;;;;6156531;23;20465;-79
2023/10/23 08:02:48;;;;;;;19.65;10.77;;;;;;;;;;6153750;23;20040;-77
2023/10/23 08:05:14;;;;;;;18.92;11.20;;;;;;;;;;6152944;23;20025;-76
2023/10/23 08:07:40;;;;;;;17.48;10.20;;;;;;;;;;6151037;23;20113;-76
2023/10/23 08:10:06;;;;;;;16.13;9.77;;;;;;;;;;6155389;23;20033;-79
2023/10/23 08:12:33;;;;;;;21.65;10.48;;;;;;;;;;6133325;23;20010;-80
2023/10/23 08:14:58;;;;;;;16.70;9.57;;;;;;;;;;6158466;23;20071;-79
2023/10/23 08:17:24;;;;;;;22.70;11.57;;;;;;;;;;6157714;23;20478;-85
2023/10/23 08:19:50;;;;;;;15.77;10.52;;;;;;;;;;6159714;23;20100;-80
2023/10/23 08:22:16;;;;;;;16.13;10.38;;;;;;;;;;6163836;23;20020;-77
2023/10/23 08:24:42;;;;;;;18.38;11.02;;;;;;;;;;6151858;23;20014;-79
2023/10/23 08:27:09;;;;;;;19.42;11.82;;;;;;;;;;6152701;23;20017;-76
2023/10/23 08:29:35;;;;;;;17.90;11.50;;;;;;;;;;6152019;23;20009;-78
2023/10/23 08:32:01;;;;;;;20.38;12.35;;;;;;;;;;6154755;23;20017;-82
2023/10/23 08:34:27;;;;;;;17.48;11.65;;;;;;;;;;6151906;23;20013;-79
2023/10/23 08:36:53;;;;;;;20.77;11.52;;;;;;;;;;6153556;23;20489;-79
2023/10/23 08:39:19;;;;;;;27.35;13.70;;;;;;;;;;6157022;23;20017;-82
2023/10/23 08:41:45;;;;;;;26.92;12.85;;;;;;;;;;6164057;23;20013;-82
2023/10/23 08:44:12;;;;;;;22.90;13.20;;;;;;;;;;6157444;23;20041;-80
2023/10/23 08:46:38;;;;;;;22.60;11.70;;;;;;;;;;6155049;23;20083;-82
2023/10/23 08:49:04;;;;;;;20.35;12.00;;;;;;;;;;6151215;23;20473;-79
2023/10/23 08:51:33;;;;;;;29.02;12.55;;;;;;;;;;6152894;23;20036;-80
2023/10/23 08:54:05;;;;;;;24.92;13.15;;;;;;;;;;6152947;23;20521;-79
2023/10/23 08:56:33;;;;;;;27.33;14.73;;;;;;;;;;6153737;23;20045;-82
2023/10/23 08:58:59;;;;;;;23.50;13.43;;;;;;;;;;6160893;23;20513;-82
2023/10/23 09:01:26;;;;;;;22.83;13.32;;;;;;;;;;6153479;23;20462;-85
2023/10/23 09:03:52;;;;;;;16.08;11.45;;;;;;;;;;6162784;23;20015;-79
2023/10/23 09:06:18;;;;;;;14.30;9.48;;;;;;;;;;6156597;23;20041;-81
2023/10/23 09:08:44;;;;;;;25.30;13.05;;;;;;;;;;6155580;23;20850;-82
2023/10/23 09:11:10;;;;;;;26.95;13.35;;;;;;;;;;6158861;23;20096;-81
2023/10/23 09:13:38;;;;;;;24.50;12.05;;;;;;;;;;6159529;23;20358;-84
2023/10/23 09:16:05;;;;;;;26.55;14.00;;;;;;;;;;6158924;23;20069;-82
2023/10/23 09:18:43;;;;;;;28.55;14.45;;;;;;;;;;6156385;23;20348;-80
2023/10/23 09:21:11;;;;;;;31.25;17.17;;;;;;;;;;6156221;23;20048;-80
2023/10/23 09:23:50;;;;;;;24.02;14.60;;;;;;;;;;6155210;23;20017;-80
2023/10/23 09:26:16;;;;;;;31.60;15.65;;;;;;;;;;6155854;23;20545;-81
2023/10/23 09:28:42;;;;;;;39.42;15.38;;;;;;;;;;6156889;23;20454;-80
2023/10/23 09:31:08;;;;;;;35.28;16.88;;;;;;;;;;6130909;23;20017;-81
2023/10/23 09:33:35;;;;;;;28.98;14.02;;;;;;;;;;6131052;23;20009;-82
2023/10/23 09:36:01;;;;;;;34.00;14.77;;;;;;;;;;6154236;23;20024;-81
2023/10/23 09:38:27;;;;;;;32.17;17.13;;;;;;;;;;6156376;23;20478;-81
2023/10/23 09:40:55;;;;;;;26.52;13.73;;;;;;;;;;6154936;23;20010;-82
2023/10/23 09:43:22;;;;;;;31.00;13.88;;;;;;;;;;6155182;23;20020;-83
2023/10/23 09:45:48;;;;;;;23.55;14.50;;;;;;;;;;6154859;23;20097;-82
2023/10/23 09:48:14;;;;;;;33.80;14.88;;;;;;;;;;6156144;23;20601;-81
2023/10/23 09:50:40;;;;;;;33.45;15.77;;;;;;;;;;6158501;23;20041;-81
2023/10/23 09:53:06;;;;;;;30.20;14.00;;;;;;;;;;6166787;23;20052;-81
2023/10/23 09:55:33;;;;;;;33.15;14.65;;;;;;;;;;6175954;23;20091;-81
2023/10/23 09:57:59;;;;;;;36.72;16.65;;;;;;;;;;6163698;23;20021;-81
2023/10/23 10:00:25;;;;;;;27.92;13.98;;;;;;;;;;6156673;23;20013;-81
2023/10/23 10:02:54;;;;;;;30.88;15.23;;;;;;;;;;6152907;23;20037;-81
2023/10/23 10:05:40;;;;;;;32.55;15.90;;;;;;;;;;6128047;23;20018;-81
2023/10/23 10:08:07;;;;;;;33.78;14.60;;;;;;;;;;6151836;23;20412;-80
2023/10/23 10:10:33;;;;;;;29.83;15.68;;;;;;;;;;6154771;23;20063;-80
2023/10/23 10:12:59;;;;;;;32.97;14.32;;;;;;;;;;6153244;23;20096;-80
2023/10/23 10:15:25;;;;;;;32.35;16.17;;;;;;;;;;6155186;23;20014;-80
2023/10/23 10:17:51;;;;;;;41.38;15.57;;;;;;;;;;6155359;23;20027;-80
2023/10/23 10:20:20;;;;;;;33.67;14.57;;;;;;;;;;6153344;23;20088;-79
2023/10/23 10:22:46;;;;;;;39.25;15.25;;;;;;;;;;6154555;23;20472;-80
2023/10/23 10:25:12;;;;;;;41.95;17.02;;;;;;;;;;6155107;23;20024;-80
2023/10/23 10:27:39;;;;;;;53.22;21.27;;;;;;;;;;6156178;23;20013;-81
2023/10/23 10:30:05;;;;;;;35.45;16.05;;;;;;;;;;6152666;23;20020;-80
2023/10/23 10:32:33;;;;;;;42.63;16.92;;;;;;;;;;6157817;23;20044;-82
2023/10/23 10:35:07;;;;;;;36.10;14.65;;;;;;;;;;6154597;23;20013;-81
2023/10/23 10:37:33;;;;;;;29.50;14.88;;;;;;;;;;6160756;23;20024;-81
2023/10/23 10:39:59;;;;;;;29.23;15.02;;;;;;;;;;6114047;23;20017;-81
2023/10/23 10:42:26;;;;;;;34.28;15.30;;;;;;;;;;6164078;23;20020;-82
2023/10/23 10:44:52;;;;;;;31.98;15.20;;;;;;;;;;6163864;23;20009;-82
2023/10/23 10:47:37;;;;;;;37.65;16.25;;;;;;;;;;6158065;23;20013;-81
2023/10/23 10:50:04;;;;;;;36.35;16.58;;;;;;;;;;6160811;23;20010;-80
2023/10/23 10:52:35;;;;;;;26.90;14.43;;;;;;;;;;6158955;23;20017;-82
2023/10/23 10:55:01;;;;;;;;;;;;;;;;;;6158466;23;20073;-81
2023/10/23 10:57:29;;;;;;;31.85;13.70;;;;;;;;;;6161511;23;19916;-80
2023/10/23 10:59:55;;;;;;;25.98;14.52;;;;;;;;;;6163989;23;20018;-81
2023/10/23 11:02:22;;;;;;;25.20;14.05;;;;;;;;;;6112129;23;20116;-81
2023/10/23 11:04:48;;;;;;;25.52;15.00;;;;;;;;;;6161262;23;20021;-81
2023/10/23 11:07:13;;;;;;;28.10;16.10;;;;;;;;;;6134068;23;20100;-82
2023/10/23 11:09:41;;;;;;;26.58;15.75;;;;;;;;;;6162398;23;20016;-82
2023/10/23 11:12:07;;;;;;;32.72;15.05;;;;;;;;;;6162211;23;20245;-82
2023/10/23 11:14:33;;;;;;;28.33;14.77;;;;;;;;;;6162892;23;20049;-81
2023/10/23 11:16:59;;;;;;;29.92;14.48;;;;;;;;;;6161470;23;20013;-81
2023/10/23 11:19:25;;;;;;;33.10;16.30;;;;;;;;;;6162932;23;20020;-82
2023/10/23 11:22:05;;;;;;;24.42;13.95;;;;;;;;;;6164351;23;20010;-82
2023/10/23 11:24:31;;;;;;;21.92;13.05;;;;;;;;;;6163923;23;20354;-82
2023/10/23 11:26:57;;;;;;;28.52;14.00;;;;;;;;;;6157736;23;20442;-79
2023/10/23 11:29:23;;;;;;;27.40;14.38;;;;;;;;;;6159088;23;20068;-81
2023/10/23 11:31:49;;;;;;;31.42;15.07;;;;;;;;;;6160606;23;20010;-80
2023/10/23 11:34:15;;;;;;;38.50;18.15;;;;;;;;;;6133326;23;20145;-81
2023/10/23 11:36:41;;;;;;;41.83;15.85;;;;;;;;;;6132717;23;20072;-81
2023/10/23 11:39:13;;;;;;;37.28;16.55;;;;;;;;;;6158078;23;20036;-81
2023/10/23 11:41:39;;;;;;;38.63;18.38;;;;;;;;;;6158723;23;20041;-82
2023/10/23 11:44:05;;;;;;;42.35;16.65;;;;;;;;;;6158825;23;20018;-82
2023/10/23 11:46:33;;;;;;;30.80;15.05;;;;;;;;;;6161406;23;20022;-81
2023/10/23 11:49:01;;;;;;;51.80;16.10;;;;;;;;;;6160313;23;20013;-82
2023/10/23 11:51:27;;;;;;;38.78;16.08;;;;;;;;;;6159701;23;20670;-81
2023/10/23 11:53:54;;;;;;;34.97;15.32;;;;;;;;;;6162054;23;20013;-81
2023/10/23 11:56:21;;;;;;;41.90;17.90;;;;;;;;;;6165427;23;20021;-80
2023/10/23 11:58:47;;;;;;;56.60;21.80;;;;;;;;;;6171464;23;20045;-79
2023/10/23 12:01:12;;;;;;;41.53;17.90;;;;;;;;;;6169034;23;20013;-80
2023/10/23 12:03:38;;;;;;;42.78;19.13;;;;;;;;;;6144872;23;20468;-78
2023/10/23 12:06:05;;;;;;;49.75;18.60;;;;;;;;;;6163889;23;20009;-80
2023/10/23 12:08:31;;;;;;;55.83;20.05;;;;;;;;;;6161331;23;20013;-81
2023/10/23 12:10:57;;;;;;;47.47;21.00;;;;;;;;;;6157427;23;20097;-78
2023/10/23 12:13:23;;;;;;;56.72;20.40;;;;;;;;;;6158765;23;20029;-81
2023/10/23 12:15:49;;;;;;;56.95;19.15;;;;;;;;;;6157246;23;20044;-80
2023/10/23 12:18:16;;;;;;;45.42;19.58;;;;;;;;;;6160640;23;20381;-82
2023/10/23 12:20:42;;;;;;;57.83;23.13;;;;;;;;;;6161493;23;20013;-82
2023/10/23 12:23:08;;;;;;;57.03;21.42;;;;;;;;;;6164474;23;20024;-81
2023/10/23 12:25:34;;;;;;;51.28;19.33;;;;;;;;;;6163492;23;20374;-81
2023/10/23 12:28:00;;;;;;;86.22;21.83;;;;;;;;;;6161618;23;20036;-82
2023/10/23 12:30:26;;;;;;;63.03;20.30;;;;;;;;;;6163764;23;20422;-82
2023/10/23 12:32:52;;;;;;;51.75;19.75;;;;;;;;;;6163009;23;20010;-82
2023/10/23 12:35:18;;;;;;;65.00;21.10;;;;;;;;;;6161539;23;20045;-81
2023/10/23 12:37:45;;;;;;;73.70;26.25;;;;;;;;;;6162895;23;20052;-82
2023/10/23 12:40:11;;;;;;;44.80;18.67;;;;;;;;;;6162081;23;20060;-81
2023/10/23 12:42:37;;;;;;;48.15;20.20;;;;;;;;;;6165235;23;20009;-82
2023/10/23 12:45:03;;;;;;;46.53;19.00;;;;;;;;;;6179770;23;20063;-82
2023/10/23 12:47:33;;;;;;;47.88;18.80;;;;;;;;;;6171992;23;20013;-81
2023/10/23 12:49:59;;;;;;;56.58;23.48;;;;;;;;;;6166269;23;20056;-79
2023/10/23 12:52:26;;;;;;;36.33;16.80;;;;;;;;;;6163530;23;20024;-83
2023/10/23 12:54:52;;;;;;;26.38;14.50;;;;;;;;;;6165127;23;20477;-82
2023/10/23 12:57:18;;;;;;;28.92;15.55;;;;;;;;;;6171637;23;20021;-80
2023/10/23 12:59:44;;;;;;;32.85;16.42;;;;;;;;;;6172287;23;20045;-82
2023/10/23 13:02:10;;;;;;;23.90;12.55;;;;;;;;;;6174441;23;20021;-81
2023/10/23 13:04:36;;;;;;;24.92;14.02;;;;;;;;;;6160280;23;20394;-83
2023/10/23 13:07:02;;;;;;;30.77;15.60;;;;;;;;;;6158586;23;20566;-81
2023/10/23 13:09:28;;;;;;;26.50;13.30;;;;;;;;;;6159034;23;20801;-82
2023/10/23 13:11:54;;;;;;;29.90;16.98;;;;;;;;;;6153846;23;20429;-79
2023/10/23 13:14:20;;;;;;;20.00;12.20;;;;;;;;;;6154743;23;20045;-80
2023/10/23 13:16:47;;;;;;;14.75;10.80;;;;;;;;;;6152268;23;20100;-81
2023/10/23 13:19:13;;;;;;;15.88;9.77;;;;;;;;;;6152860;23;20029;-79
2023/10/23 13:21:38;;;;;;;20.90;9.40;;;;;;;;;;6151039;23;20033;-81
2023/10/23 13:24:04;;;;;;;14.13;9.10;;;;;;;;;;6152449;23;20336;-80
2023/10/23 13:26:31;;;;;;;13.40;10.07;;;;;;;;;;6153120;23;20498;-81
2023/10/23 13:28:57;;;;;;;20.63;11.32;;;;;;;;;;6153135;23;20092;-79
2023/10/23 13:31:26;;;;;;;20.23;11.88;;;;;;;;;;6151549;23;20048;-77
2023/10/23 13:33:52;;;;;;;18.45;12.60;;;;;;;;;;6150646;23;20013;-79
2023/10/23 13:36:17;;;;;;;22.80;12.60;;;;;;;;;;6131029;23;20013;-79
2023/10/23 13:38:43;;;;;;;19.30;12.38;;;;;;;;;;6159202;23;20052;-82
2023/10/23 13:41:10;;;;;;;16.10;10.77;;;;;;;;;;6155353;23;20021;-78
2023/10/23 13:43:35;;;;;;;21.13;14.40;;;;;;;;;;6152219;23;20450;-80
2023/10/23 13:46:02;;;;;;;12.68;11.15;;;;;;;;;;6155358;23;20339;-83
2023/10/23 13:48:27;;;;;;;26.83;16.52;;;;;;;;;;6157697;23;20020;-82
2023/10/23 13:50:53;;;;;;;36.08;19.00;;;;;;;;;;6155561;23;20454;-82
2023/10/23 13:53:20;;;;;;;42.00;21.17;;;;;;;;;;6160655;23;20013;-81
2023/10/23 13:55:46;;;;;;;24.95;15.50;;;;;;;;;;6157601;23;20108;-81
2023/10/23 13:58:12;;;;;;;30.25;16.27;;;;;;;;;;6130378;23;20026;-76
2023/10/23 14:00:38;;;;;;;33.13;17.27;;;;;;;;;;6169067;23;20013;-80
2023/10/23 14:03:04;;;;;;;38.72;23.48;;;;;;;;;;6168716;23;20013;-80
2023/10/23 14:05:30;;;;;;;28.20;20.70;;;;;;;;;;6158305;23;20013;-81
2023/10/23 14:07:57;;;;;;;31.30;18.67;;;;;;;;;;6158592;23;20084;-81
2023/10/23 14:10:23;;;;;;;40.53;20.83;;;;;;;;;;6134865;23;20024;-82
2023/10/23 14:12:51;;;;;;;51.50;29.02;;;;;;;;;;6157285;23;20018;-80
2023/10/23 14:15:17;;;;;;;36.50;21.73;;;;;;;;;;6128922;23;20096;-81
2023/10/23 14:17:44;;;;;;;32.55;16.73;;;;;;;;;;6158846;23;20026;-81
2023/10/23 14:20:10;;;;;;;45.08;27.08;;;;;;;;;;6150864;23;20343;-80